Time;durP1;ratioP1;P1;durP2;ratioP2;P2;SDS_P1;SDS_P2;PMS_P1;PMS_P2;Temp;Humidity;BMP_temperature;BMP_pressure;BME280_temperature;BME280_humidity;BME280_pressure;Samples;Min_cycle;Max_cycle;Signal;HPM_P1;HPM_P2
2024/02/16 00:00:08;;;;;;;463.52;435.58;;;15.30;99.90;;;;;;5028094;28;20041;-75
2024/02/16 00:02:34;;;;;;;444.83;418.40;;;15.40;99.90;;;;;;5028912;28;20041;-77
2024/02/16 00:05:00;;;;;;;385.80;363.50;;;15.40;99.90;;;;;;5021613;28;20037;-77
2024/02/16 00:07:26;;;;;;;309.50;292.02;;;15.30;99.90;;;;;;5031753;28;20037;-77
2024/02/16 00:09:52;;;;;;;281.92;266.27;;;15.30;99.90;;;;;;5034247;28;20072;-77
2024/02/16 00:12:18;;;;;;;323.50;305.42;;;15.30;99.90;;;;;;5026089;28;20034;-77
2024/02/16 00:14:45;;;;;;;354.95;334.45;;;15.30;99.90;;;;;;5030961;28;20041;-77
2024/02/16 00:17:12;;;;;;;393.95;370.40;;;15.20;99.90;;;;;;5029360;28;20475;-77
2024/02/16 00:19:38;;;;;;;328.98;310.33;;;15.20;99.90;;;;;;5033617;28;20029;-77
2024/02/16 00:22:07;;;;;;;317.67;299.35;;;15.10;99.90;;;;;;5032932;28;20030;-77
2024/02/16 00:24:33;;;;;;;329.63;310.30;;;15.20;99.90;;;;;;5031640;28;20041;-77
2024/02/16 00:27:00;;;;;;;363.00;342.00;;;15.20;99.90;;;;;;5056704;28;20052;-77
2024/02/16 00:29:26;;;;;;;477.42;447.50;;;15.20;99.90;;;;;;5033433;28;20049;-77
2024/02/16 00:31:52;;;;;;;533.53;499.10;;;15.30;99.90;;;;;;5032062;28;20037;-77
2024/02/16 00:34:18;;;;;;;488.45;457.30;;;15.30;99.90;;;;;;5031376;28;20041;-77
2024/02/16 00:36:44;;;;;;;398.85;375.55;;;15.30;99.90;;;;;;5028852;28;20037;-77
2024/02/16 00:39:10;;;;;;;261.88;246.95;;;15.30;99.90;;;;;;5033962;28;20056;-77
2024/02/16 00:41:36;;;;;;;331.52;311.40;;;15.30;99.90;;;;;;5032121;28;20053;-77
2024/02/16 00:44:03;;;;;;;304.63;286.77;;;15.30;99.90;;;;;;5032512;28;20041;-77
2024/02/16 00:46:29;;;;;;;478.65;448.83;;;15.40;99.90;;;;;;5031118;28;20042;-77
2024/02/16 00:48:55;;;;;;;392.98;369.83;;;15.50;99.90;;;;;;5033515;28;20049;-77
2024/02/16 00:51:23;;;;;;;355.63;334.75;;;15.60;99.90;;;;;;5032786;28;20049;-77
2024/02/16 00:53:49;;;;;;;333.83;314.42;;;15.60;99.90;;;;;;5032706;28;20041;-77
2024/02/16 00:56:15;;;;;;;304.02;286.30;;;15.50;99.90;;;;;;5030419;28;20478;-77
2024/02/16 00:58:42;;;;;;;339.17;319.95;;;15.50;99.90;;;;;;5026976;28;20044;-77
2024/02/16 01:01:10;;;;;;;256.00;241.02;;;15.50;99.90;;;;;;5031733;28;20040;-77
2024/02/16 01:03:37;;;;;;;314.17;296.25;;;15.50;99.90;;;;;;5031400;28;20037;-77
2024/02/16 01:06:05;;;;;;;238.18;224.50;;;15.40;99.90;;;;;;5031102;28;20049;-77
2024/02/16 01:08:31;;;;;;;274.33;258.52;;;15.40;99.90;;;;;;5032765;28;20064;-77
2024/02/16 01:10:58;;;;;;;324.60;305.85;;;15.50;99.90;;;;;;5032283;28;20058;-77
2024/02/16 01:13:24;;;;;;;313.83;295.65;;;15.50;99.90;;;;;;5025772;28;20029;-77
2024/02/16 01:15:50;;;;;;;396.17;372.23;;;15.50;99.90;;;;;;5020202;28;20037;-77
2024/02/16 01:18:16;;;;;;;386.52;363.05;;;15.40;99.90;;;;;;5031811;28;20363;-77
2024/02/16 01:20:42;;;;;;;311.92;292.50;;;15.40;99.90;;;;;;5057173;28;20044;-77
2024/02/16 01:23:08;;;;;;;371.90;349.98;;;15.50;99.90;;;;;;5033494;28;20443;-77
2024/02/16 01:25:34;;;;;;;364.10;341.70;;;15.40;99.90;;;;;;5027937;28;20041;-77
2024/02/16 01:28:01;;;;;;;329.15;308.80;;;15.30;99.90;;;;;;5032559;28;20372;-77
2024/02/16 01:30:27;;;;;;;323.67;303.70;;;15.30;99.90;;;;;;5031198;28;20041;-77
2024/02/16 01:32:53;;;;;;;294.65;277.52;;;15.40;99.90;;;;;;5031795;28;20101;-77
2024/02/16 01:35:20;;;;;;;238.68;224.68;;;15.30;99.90;;;;;;5024344;28;20081;-77
2024/02/16 01:37:47;;;;;;;444.25;416.15;;;15.30;99.90;;;;;;5029405;28;20048;-77
2024/02/16 01:40:17;;;;;;;313.02;294.52;;;15.30;99.90;;;;;;5032548;28;20045;-77
2024/02/16 01:42:43;;;;;;;482.70;451.73;;;15.30;99.90;;;;;;5031014;28;20037;-77
2024/02/16 01:45:11;;;;;;;405.48;379.70;;;15.20;99.90;;;;;;5031446;28;20033;-77
2024/02/16 01:47:37;;;;;;;230.60;217.50;;;15.20;99.90;;;;;;5014659;28;20493;-77
2024/02/16 01:50:03;;;;;;;202.27;190.25;;;15.20;99.90;;;;;;5029733;28;20033;-77
2024/02/16 01:52:30;;;;;;;393.58;368.85;;;15.20;99.90;;;;;;5029933;28;20037;-77
2024/02/16 01:54:57;;;;;;;334.30;314.88;;;15.20;99.90;;;;;;5063835;28;20048;-77
2024/02/16 01:57:24;;;;;;;230.93;216.55;;;15.20;99.90;;;;;;5031347;28;20034;-77
2024/02/16 01:59:50;;;;;;;243.27;229.93;;;15.20;99.90;;;;;;5029478;28;20025;-77
2024/02/16 02:02:16;;;;;;;394.17;371.08;;;15.30;99.90;;;;;;5029176;28;20038;-77
2024/02/16 02:04:42;;;;;;;221.90;209.00;;;15.30;99.90;;;;;;5062540;28;20490;-77
2024/02/16 02:07:12;;;;;;;311.98;294.15;;;15.30;99.90;;;;;;5030965;28;20033;-77
2024/02/16 02:09:38;;;;;;;394.70;370.83;;;15.20;99.90;;;;;;5030798;28;20060;-77
2024/02/16 02:12:05;;;;;;;275.65;258.85;;;15.20;99.90;;;;;;5031276;28;20029;-76
2024/02/16 02:14:31;;;;;;;293.73;277.02;;;15.10;99.90;;;;;;5028032;28;20021;-77
2024/02/16 02:16:57;;;;;;;367.73;345.65;;;15.10;99.90;;;;;;5023793;28;20036;-77
2024/02/16 02:19:23;;;;;;;253.30;238.25;;;15.00;99.90;;;;;;5031397;28;20029;-77
2024/02/16 02:21:50;;;;;;;378.88;355.75;;;15.10;99.90;;;;;;5031214;28;20096;-77
2024/02/16 02:24:16;;;;;;;378.25;356.45;;;15.10;99.90;;;;;;5026039;28;20041;-77
2024/02/16 02:26:42;;;;;;;259.65;245.02;;;15.00;99.90;;;;;;5029354;28;20038;-77
2024/02/16 02:29:08;;;;;;;356.25;336.08;;;15.00;99.90;;;;;;5063809;28;20054;-77
2024/02/16 02:31:34;;;;;;;506.58;475.33;;;15.00;99.90;;;;;;5029729;28;20406;-77
2024/02/16 02:34:01;;;;;;;321.05;302.85;;;15.00;99.90;;;;;;5029399;28;20033;-77
2024/02/16 02:36:27;;;;;;;324.70;306.20;;;15.00;99.90;;;;;;5026140;28;20097;-77
2024/02/16 02:38:53;;;;;;;430.27;404.73;;;15.00;99.90;;;;;;5030733;28;20040;-77
2024/02/16 02:41:20;;;;;;;525.60;492.52;;;15.00;99.90;;;;;;5030487;28;20029;-76
2024/02/16 02:43:46;;;;;;;477.13;449.27;;;15.00;99.90;;;;;;5030293;28;20053;-77
2024/02/16 02:46:18;;;;;;;261.75;247.80;;;15.00;99.90;;;;;;5028278;28;20033;-77
2024/02/16 02:48:44;;;;;;;279.95;263.75;;;15.00;99.90;;;;;;5044889;28;20574;-77
2024/02/16 02:51:11;;;;;;;282.15;266.42;;;15.00;99.90;;;;;;5019556;28;20037;-77
2024/02/16 02:53:37;;;;;;;318.45;301.20;;;15.00;99.90;;;;;;5029685;28;20052;-77
2024/02/16 02:56:03;;;;;;;294.83;279.10;;;15.00;99.90;;;;;;5026498;28;20034;-77
2024/02/16 02:58:30;;;;;;;334.80;316.15;;;15.10;99.90;;;;;;5025627;28;20427;-77
2024/02/16 03:00:56;;;;;;;320.58;303.15;;;15.00;99.90;;;;;;5026392;28;20512;-77
2024/02/16 03:03:22;;;;;;;395.15;372.05;;;15.00;99.90;;;;;;5023842;28;20030;-77
2024/02/16 03:05:49;;;;;;;434.00;408.60;;;15.00;99.90;;;;;;5025716;28;20037;-77
2024/02/16 03:08:15;;;;;;;372.13;351.65;;;15.00;99.90;;;;;;5028204;28;20053;-77
2024/02/16 03:10:42;;;;;;;349.50;330.00;;;14.90;99.90;;;;;;5028943;28;20681;-77
2024/02/16 03:13:09;;;;;;;340.90;321.65;;;15.00;99.90;;;;;;5027598;28;20033;-77
2024/02/16 03:15:38;;;;;;;343.15;324.23;;;15.00;99.90;;;;;;5026519;28;20505;-77
2024/02/16 03:18:08;;;;;;;380.98;359.58;;;15.00;99.90;;;;;;5024168;28;20387;-77
2024/02/16 03:20:35;;;;;;;306.50;289.80;;;15.00;99.90;;;;;;5013956;28;20041;-77
2024/02/16 03:23:02;;;;;;;420.40;396.35;;;15.00;99.90;;;;;;5033267;28;20060;-77
2024/02/16 03:25:29;;;;;;;395.63;373.13;;;15.10;99.90;;;;;;5030799;28;20031;-77
2024/02/16 03:27:55;;;;;;;419.63;395.70;;;15.10;99.90;;;;;;5032145;28;20025;-77
2024/02/16 03:30:21;;;;;;;422.45;398.13;;;15.10;99.90;;;;;;5031768;28;20045;-77
2024/02/16 03:32:49;;;;;;;373.23;352.83;;;15.10;99.90;;;;;;5032476;28;20050;-77
2024/02/16 03:35:15;;;;;;;479.35;450.38;;;15.10;99.90;;;;;;5022027;28;20025;-77
2024/02/16 03:37:41;;;;;;;472.35;443.83;;;15.10;99.90;;;;;;5033007;28;20494;-77
2024/02/16 03:40:09;;;;;;;468.67;440.38;;;15.10;99.90;;;;;;5034580;28;20443;-77
2024/02/16 03:42:35;;;;;;;350.10;330.67;;;15.00;99.90;;;;;;5034523;28;20049;-77
2024/02/16 03:45:05;;;;;;;294.65;278.65;;;15.10;99.90;;;;;;5033101;28;20037;-77
2024/02/16 03:47:31;;;;;;;289.30;274.33;;;15.00;99.90;;;;;;5030674;28;20029;-77
2024/02/16 03:49:57;;;;;;;301.38;285.95;;;15.00;99.90;;;;;;5026486;28;20045;-77
2024/02/16 03:52:25;;;;;;;325.55;308.17;;;14.90;99.90;;;;;;5032773;28;20111;-77
2024/02/16 03:54:51;;;;;;;489.33;460.00;;;15.00;99.90;;;;;;5032567;28;20048;-77
2024/02/16 03:57:17;;;;;;;368.75;348.40;;;15.00;99.90;;;;;;5033736;28;20037;-76
2024/02/16 03:59:43;;;;;;;365.13;345.17;;;15.00;99.90;;;;;;5026992;28;20044;-77
2024/02/16 04:02:11;;;;;;;347.92;328.88;;;14.90;99.90;;;;;;5036395;28;20032;-77
2024/02/16 04:04:37;;;;;;;349.17;330.67;;;14.90;99.90;;;;;;5033470;28;20497;-76
2024/02/16 04:07:03;;;;;;;384.27;362.98;;;14.90;99.90;;;;;;5030922;28;20034;-77
2024/02/16 04:09:29;;;;;;;319.98;302.70;;;14.90;99.90;;;;;;5031218;28;20052;-77
2024/02/16 04:11:55;;;;;;;421.13;396.85;;;14.90;99.90;;;;;;5031585;28;20394;-77
2024/02/16 04:14:21;;;;;;;322.80;305.90;;;14.90;99.90;;;;;;5032857;28;20040;-77
2024/02/16 04:16:48;;;;;;;433.92;408.77;;;15.00;99.90;;;;;;5031600;28;20354;-77
2024/02/16 04:19:14;;;;;;;519.00;487.75;;;15.00;99.90;;;;;;5033749;28;20037;-77
2024/02/16 04:21:40;;;;;;;627.00;585.05;;;15.00;99.90;;;;;;5032664;28;20464;-77
2024/02/16 04:24:09;;;;;;;608.35;567.25;;;15.10;99.90;;;;;;5033883;28;20037;-77
2024/02/16 04:26:35;;;;;;;615.17;572.88;;;15.10;99.90;;;;;;5029954;28;20029;-77
2024/02/16 04:29:04;;;;;;;655.25;608.45;;;15.10;99.90;;;;;;5015762;28;20060;-77
2024/02/16 04:31:30;;;;;;;640.10;595.55;;;15.10;99.90;;;;;;5032412;28;20042;-77
2024/02/16 04:33:56;;;;;;;675.53;627.63;;;15.10;99.90;;;;;;5033521;28;20046;-77
2024/02/16 04:36:22;;;;;;;545.70;510.00;;;15.10;99.90;;;;;;5032228;28;20501;-77
2024/02/16 04:38:48;;;;;;;617.17;572.83;;;15.20;99.90;;;;;;5023017;28;20038;-77
2024/02/16 04:41:15;;;;;;;637.72;592.75;;;15.10;99.90;;;;;;5015777;28;20045;-77
2024/02/16 04:43:41;;;;;;;657.53;610.65;;;15.10;99.90;;;;;;5022476;28;20049;-77
2024/02/16 04:46:13;;;;;;;588.80;550.88;;;15.00;99.90;;;;;;5030516;28;20406;-77
2024/02/16 04:48:39;;;;;;;582.65;544.90;;;15.00;99.90;;;;;;5026776;28;20048;-77
2024/02/16 04:51:05;;;;;;;403.38;379.17;;;15.00;99.90;;;;;;5033369;28;20026;-77
2024/02/16 04:53:31;;;;;;;390.23;367.83;;;15.00;99.90;;;;;;5023543;28;20030;-77
2024/02/16 04:55:58;;;;;;;488.90;458.88;;;15.10;99.90;;;;;;5039775;28;20048;-77
2024/02/16 04:58:24;;;;;;;534.60;502.00;;;15.00;99.90;;;;;;5016152;28;20502;-77
2024/02/16 05:00:50;;;;;;;381.60;359.98;;;15.00;99.90;;;;;;5031052;28;20025;-77
2024/02/16 05:03:16;;;;;;;620.33;580.67;;;15.00;99.90;;;;;;5033201;28;20044;-77
2024/02/16 05:05:43;;;;;;;428.80;403.17;;;15.00;99.90;;;;;;5031757;28;20029;-77
2024/02/16 05:08:09;;;;;;;415.70;391.10;;;14.90;99.90;;;;;;5025941;28;20037;-77
2024/02/16 05:10:36;;;;;;;391.15;368.67;;;15.00;99.90;;;;;;5032504;28;20076;-77
2024/02/16 05:13:02;;;;;;;434.25;408.42;;;14.90;99.90;;;;;;5014359;28;20479;-77
2024/02/16 05:15:28;;;;;;;245.75;232.75;;;15.00;99.90;;;;;;5031187;28;20042;-77
2024/02/16 05:17:54;;;;;;;257.65;242.52;;;15.00;99.90;;;;;;5023516;28;20033;-77
2024/02/16 05:20:20;;;;;;;264.50;250.32;;;14.90;99.90;;;;;;5058185;28;20680;-77
2024/02/16 05:22:46;;;;;;;342.73;322.63;;;14.80;99.90;;;;;;5032492;28;20478;-76
2024/02/16 05:25:13;;;;;;;327.45;309.15;;;14.90;99.90;;;;;;5031495;28;20041;-77
2024/02/16 05:27:39;;;;;;;373.08;344.70;;;14.80;99.90;;;;;;5027296;28;20044;-77
2024/02/16 05:30:08;;;;;;;257.15;243.85;;;14.90;99.90;;;;;;5032399;28;20469;-77
2024/02/16 05:32:37;;;;;;;257.25;243.27;;;15.00;99.90;;;;;;5013287;28;20431;-77
2024/02/16 05:35:16;;;;;;;349.13;329.77;;;14.90;99.90;;;;;;5027508;28;20033;-77
2024/02/16 05:37:47;;;;;;;359.08;338.15;;;14.90;99.90;;;;;;5018996;28;20080;-77
2024/02/16 05:40:28;;;;;;;268.88;254.40;;;14.90;99.90;;;;;;5032108;28;20394;-77
2024/02/16 05:42:57;;;;;;;227.30;215.40;;;15.00;99.90;;;;;;5032401;28;20081;-77
2024/02/16 05:45:24;;;;;;;242.13;229.48;;;15.00;99.90;;;;;;5014234;28;20037;-77
2024/02/16 05:47:50;;;;;;;250.75;237.70;;;15.00;99.90;;;;;;5025703;28;20394;-77
2024/02/16 05:50:16;;;;;;;222.65;210.98;;;15.00;99.90;;;;;;5023540;28;20041;-77
2024/02/16 05:52:43;;;;;;;301.25;284.35;;;14.90;99.90;;;;;;5031352;28;20040;-76
2024/02/16 05:55:10;;;;;;;239.85;226.85;;;14.70;99.90;;;;;;5032689;28;20494;-76
2024/02/16 05:57:37;;;;;;;230.90;218.88;;;14.60;99.90;;;;;;5031662;28;20036;-76
2024/02/16 06:00:04;;;;;;;280.73;264.75;;;14.50;99.90;;;;;;5031946;28;20040;-76
2024/02/16 06:02:31;;;;;;;306.92;289.48;;;14.30;99.90;;;;;;5031557;28;20422;-76
2024/02/16 06:04:58;;;;;;;252.27;238.30;;;14.10;99.90;;;;;;5032365;28;20037;-77
2024/02/16 06:07:24;;;;;;;230.68;217.77;;;14.00;99.90;;;;;;5030896;28;20034;-77
2024/02/16 06:09:50;;;;;;;204.32;192.85;;;13.80;99.90;;;;;;5015983;28;20481;-77
2024/02/16 06:12:16;;;;;;;203.63;192.98;;;13.70;99.90;;;;;;5031870;28;20041;-76
2024/02/16 06:14:42;;;;;;;198.85;187.75;;;13.60;99.90;;;;;;5031948;28;20470;-76
2024/02/16 06:17:08;;;;;;;253.18;238.85;;;13.50;99.90;;;;;;5030590;28;20497;-76
2024/02/16 06:19:37;;;;;;;239.35;225.98;;;13.50;99.90;;;;;;5031246;28;20482;-76
2024/02/16 06:22:03;;;;;;;306.92;289.08;;;13.40;99.90;;;;;;5032021;28;20041;-76
2024/02/16 06:24:29;;;;;;;198.32;187.82;;;13.50;99.90;;;;;;5027049;28;20029;-75
2024/02/16 06:26:55;;;;;;;136.13;129.25;;;13.40;99.90;;;;;;5030660;28;20033;-76
2024/02/16 06:29:22;;;;;;;208.93;197.05;;;13.40;99.90;;;;;;5013989;28;20092;-75
2024/02/16 06:31:48;;;;;;;140.13;132.77;;;13.40;99.90;;;;;;5031122;28;20041;-74
2024/02/16 06:34:17;;;;;;;183.13;173.55;;;13.40;99.90;;;;;;5024600;28;20074;-75
2024/02/16 06:36:43;;;;;;;245.27;231.85;;;13.40;99.90;;;;;;5030928;28;20448;-74
2024/02/16 06:39:10;;;;;;;132.63;125.93;;;13.40;99.90;;;;;;5031609;28;20026;-76
2024/02/16 06:41:37;;;;;;;241.32;228.02;;;13.40;99.90;;;;;;5030751;28;20053;-77
2024/02/16 06:44:04;;;;;;;176.45;167.15;;;13.50;99.90;;;;;;5029994;28;20042;-82
2024/02/16 06:46:30;;;;;;;199.68;189.20;;;13.60;99.90;;;;;;5034252;28;20048;-76
2024/02/16 06:48:56;;;;;;;164.13;155.75;;;13.60;99.90;;;;;;5030978;28;20037;-75
2024/02/16 06:51:24;;;;;;;141.25;133.98;;;13.60;99.90;;;;;;5031694;28;20044;-79
2024/02/16 06:53:51;;;;;;;222.27;210.73;;;13.70;99.90;;;;;;5031687;28;20041;-75
2024/02/16 06:56:18;;;;;;;187.77;178.32;;;13.70;99.90;;;;;;5034745;28;20493;-81
2024/02/16 06:58:45;;;;;;;167.63;159.18;;;13.80;99.90;;;;;;5032928;28;20393;-77
2024/02/16 07:01:12;;;;;;;218.43;206.30;;;13.90;99.90;;;;;;5035038;28;20045;-84
2024/02/16 07:03:38;;;;;;;250.10;237.10;;;13.90;99.90;;;;;;5018025;28;20041;-75
2024/02/16 07:06:09;;;;;;;235.98;223.65;;;13.80;99.90;;;;;;5035248;28;20030;-77
2024/02/16 07:08:41;;;;;;;225.68;213.02;;;13.90;99.90;;;;;;5033810;28;20037;-80
2024/02/16 07:11:08;;;;;;;190.07;180.32;;;13.80;99.90;;;;;;5035752;28;20045;-79
2024/02/16 07:13:34;;;;;;;274.42;259.40;;;13.80;99.90;;;;;;5035127;28;20033;-81
2024/02/16 07:16:00;;;;;;;207.80;197.13;;;13.90;99.90;;;;;;5030325;28;20042;-83
2024/02/16 07:18:26;;;;;;;196.10;186.27;;;13.80;99.90;;;;;;5033549;28;20033;-85
2024/02/16 07:20:52;;;;;;;194.60;184.90;;;13.80;99.90;;;;;;5034529;28;20052;-91
2024/02/16 07:23:18;;;;;;;254.40;241.30;;;13.90;99.90;;;;;;5029659;28;20030;-78
2024/02/16 07:25:45;;;;;;;241.88;228.50;;;13.90;99.90;;;;;;5033693;28;20402;-80
2024/02/16 07:28:11;;;;;;;195.15;184.95;;;14.10;99.90;;;;;;5033985;28;20045;-82
2024/02/16 07:30:38;;;;;;;209.32;198.55;;;14.10;99.90;;;;;;5029544;28;20482;-80
2024/02/16 07:33:07;;;;;;;198.32;187.68;;;14.20;99.90;;;;;;5016333;28;20045;-81
2024/02/16 07:35:36;;;;;;;240.45;228.00;;;14.20;99.90;;;;;;5028877;28;20037;-78
2024/02/16 07:38:03;;;;;;;250.98;237.90;;;14.30;99.90;;;;;;5025303;28;20375;-78
2024/02/16 07:40:29;;;;;;;215.68;204.38;;;14.30;99.90;;;;;;5032693;28;20042;-83
2024/02/16 07:42:55;;;;;;;314.35;296.52;;;14.30;99.90;;;;;;5033818;28;20050;-81
2024/02/16 07:45:21;;;;;;;276.27;261.05;;;14.20;99.90;;;;;;5034220;28;20036;-80
2024/02/16 07:47:47;;;;;;;329.23;311.70;;;14.30;99.90;;;;;;5031710;28;20410;-77
2024/02/16 07:50:17;;;;;;;320.10;302.40;;;14.40;99.90;;;;;;5025431;28;20037;-76
2024/02/16 07:52:43;;;;;;;315.10;296.77;;;14.30;99.90;;;;;;5025347;28;20034;-79
2024/02/16 07:55:10;;;;;;;328.73;309.80;;;14.30;99.90;;;;;;5031767;28;20030;-80
2024/02/16 07:57:37;;;;;;;362.40;341.40;;;14.40;99.90;;;;;;5032541;28;20386;-80
2024/02/16 08:00:04;;;;;;;209.73;198.32;;;14.40;99.90;;;;;;5037673;28;20044;-79
2024/02/16 08:02:30;;;;;;;237.52;224.85;;;14.30;99.90;;;;;;5027057;28;20038;-78
2024/02/16 08:04:56;;;;;;;375.35;353.02;;;14.40;99.90;;;;;;5027280;28;20040;-82
2024/02/16 08:07:22;;;;;;;372.15;315.70;;;14.50;99.90;;;;;;5062151;28;20408;-75
2024/02/16 08:09:49;;;;;;;321.35;303.02;;;14.50;99.90;;;;;;5031605;28;20064;-79
2024/02/16 08:12:15;;;;;;;276.67;260.98;;;14.50;99.90;;;;;;5034515;28;20108;-80
2024/02/16 08:14:42;;;;;;;328.40;308.35;;;14.10;99.90;;;;;;5030615;28;20044;-80
2024/02/16 08:17:09;;;;;;;445.73;414.88;;;14.20;99.90;;;;;;5020134;28;20702;-81
2024/02/16 08:19:36;;;;;;;271.60;256.70;;;14.20;99.90;;;;;;5018521;28;20041;-74
2024/02/16 08:22:04;;;;;;;286.85;270.08;;;13.90;99.90;;;;;;5028815;28;20033;-74
2024/02/16 08:24:35;;;;;;;283.40;266.70;;;13.90;99.90;;;;;;5025995;28;20041;-73
2024/02/16 08:27:01;;;;;;;239.52;225.90;;;13.80;99.90;;;;;;5032702;28;20056;-73
2024/02/16 08:29:27;;;;;;;305.80;287.90;;;13.80;99.90;;;;;;5014501;28;20038;-73
2024/02/16 08:31:56;;;;;;;463.83;434.63;;;13.80;99.90;;;;;;5029007;28;20060;-73
2024/02/16 08:34:26;;;;;;;256.52;241.68;;;13.90;99.90;;;;;;5027812;28;20030;-74
2024/02/16 08:36:52;;;;;;;311.45;292.73;;;13.90;99.90;;;;;;5032554;28;20045;-73
2024/02/16 08:39:20;;;;;;;293.65;276.30;;;13.90;99.90;;;;;;5019093;28;20042;-73
2024/02/16 08:41:49;;;;;;;362.67;340.33;;;14.00;99.90;;;;;;5033380;28;20068;-73
2024/02/16 08:44:15;;;;;;;308.65;290.58;;;14.20;99.90;;;;;;5029347;28;20029;-73
2024/02/16 08:46:41;;;;;;;346.23;326.33;;;14.30;99.90;;;;;;5031074;28;20041;-74
2024/02/16 08:49:09;;;;;;;296.48;279.42;;;14.30;99.90;;;;;;5020958;28;20041;-75
2024/02/16 08:51:35;;;;;;;280.88;264.23;;;14.20;99.90;;;;;;5032004;28;20049;-75
2024/02/16 08:54:01;;;;;;;308.85;290.77;;;13.90;99.90;;;;;;5033638;28;20025;-73
2024/02/16 08:56:28;;;;;;;305.70;288.15;;;13.90;99.90;;;;;;5029586;28;20537;-74
2024/02/16 08:58:54;;;;;;;359.80;338.63;;;14.10;99.90;;;;;;5021456;28;20049;-76
2024/02/16 09:01:36;;;;;;;319.33;300.45;;;14.00;99.90;;;;;;5031013;28;20042;-75
2024/02/16 09:04:03;;;;;;;220.60;208.10;;;14.10;99.90;;;;;;5032181;28;20056;-75
2024/02/16 09:06:29;;;;;;;1999.90;999.90;;;14.30;99.90;;;;;;5031893;28;20033;-75
2024/02/16 09:08:55;;;;;;;310.95;292.70;;;14.30;99.90;;;;;;5021190;28;20045;-75
2024/02/16 09:11:22;;;;;;;328.38;309.55;;;14.30;99.90;;;;;;5032393;28;20049;-75
2024/02/16 09:13:48;;;;;;;286.08;270.02;;;14.40;99.90;;;;;;5023595;28;20041;-75
2024/02/16 09:16:14;;;;;;;349.90;330.05;;;14.30;99.90;;;;;;5027661;28;20041;-75
2024/02/16 09:18:40;;;;;;;1999.90;999.90;;;14.20;99.90;;;;;;5030107;28;20037;-74
2024/02/16 09:21:06;;;;;;;384.67;363.27;;;14.20;99.90;;;;;;5032300;28;20383;-76
2024/02/16 09:23:33;;;;;;;1999.90;999.90;;;14.20;99.90;;;;;;5033180;28;20030;-77
2024/02/16 09:25:59;;;;;;;1598.05;842.65;;;14.10;99.90;;;;;;5031309;28;20041;-77
2024/02/16 09:28:26;;;;;;;582.10;544.08;;;14.10;99.90;;;;;;5031024;28;20427;-78
2024/02/16 09:30:52;;;;;;;938.88;660.47;;;14.00;99.90;;;;;;5028557;28;20045;-77
2024/02/16 09:33:18;;;;;;;527.00;494.52;;;14.10;99.90;;;;;;5029719;28;20036;-76
2024/02/16 09:35:44;;;;;;;504.17;472.80;;;14.10;99.90;;;;;;5032511;28;20037;-82
2024/02/16 09:38:10;;;;;;;468.35;439.98;;;14.10;99.90;;;;;;5030999;28;20400;-80
2024/02/16 09:40:36;;;;;;;1999.90;999.90;;;14.20;99.90;;;;;;5029667;28;20033;-78
2024/02/16 09:43:03;;;;;;;359.65;339.40;;;14.10;99.90;;;;;;5019912;28;20403;-74
2024/02/16 09:45:29;;;;;;;738.10;474.83;;;14.00;99.90;;;;;;5023694;28;20044;-79
2024/02/16 09:47:55;;;;;;;1999.90;999.90;;;14.00;99.90;;;;;;5023863;28;20038;-79
2024/02/16 09:50:21;;;;;;;1999.90;999.90;;;13.90;99.90;;;;;;5029845;28;20049;-79
2024/02/16 09:52:48;;;;;;;1999.90;999.90;;;14.00;99.90;;;;;;5026086;28;20033;-79
2024/02/16 09:55:15;;;;;;;1999.90;999.90;;;13.90;99.90;;;;;;5027875;28;20049;-79
2024/02/16 09:57:41;;;;;;;1999.90;999.90;;;13.90;99.90;;;;;;5030554;28;20057;-79
2024/02/16 10:00:09;;;;;;;1999.90;999.90;;;13.80;99.90;;;;;;5027584;28;20378;-77
2024/02/16 10:02:45;;;;;;;724.60;462.40;;;13.80;99.90;;;;;;5030606;28;20021;-79
2024/02/16 10:05:16;;;;;;;1999.90;999.90;;;13.90;99.90;;;;;;5029056;28;20371;-79
2024/02/16 10:07:43;;;;;;;;;;;14.00;99.90;;;;;;5031416;28;20363;-78
2024/02/16 10:10:24;;;;;;;287.80;271.42;;;14.10;99.90;;;;;;5031099;28;19917;-79
2024/02/16 10:13:11;;;;;;;1999.90;999.90;;;14.20;99.90;;;;;;5021733;28;20044;-78
2024/02/16 10:15:37;;;;;;;1999.90;999.90;;;14.50;99.90;;;;;;5015233;28;20057;-78
2024/02/16 10:18:04;;;;;;;1999.90;999.90;;;14.60;99.90;;;;;;5031411;28;20474;-73
2024/02/16 10:20:31;;;;;;;1999.90;999.90;;;14.80;99.90;;;;;;5025573;28;20502;-77
2024/02/16 10:23:08;;;;;;;1999.90;999.90;;;14.80;99.90;;;;;;5030206;28;20560;-80
2024/02/16 10:25:35;;;;;;;1999.90;999.90;;;14.90;99.90;;;;;;5019245;28;20049;-73
2024/02/16 10:28:12;;;;;;;1999.90;999.90;;;15.00;99.90;;;;;;5030387;28;20048;-82
2024/02/16 10:30:39;;;;;;;1999.90;999.90;;;15.10;99.90;;;;;;5023738;28;20052;-81
2024/02/16 10:33:06;;;;;;;1999.90;999.90;;;15.10;99.90;;;;;;5029654;28;20497;-81
2024/02/16 10:35:37;;;;;;;1999.90;999.90;;;15.00;99.90;;;;;;5029780;28;20022;-82
2024/02/16 10:38:09;;;;;;;1999.90;999.90;;;15.10;99.90;;;;;;5029797;28;20026;-74
2024/02/16 10:40:39;;;;;;;1999.90;999.90;;;15.00;99.90;;;;;;5030752;28;20390;-75
2024/02/16 10:43:06;;;;;;;1999.90;999.90;;;15.00;99.90;;;;;;5031103;28;20513;-78
2024/02/16 10:45:39;;;;;;;1999.90;999.90;;;15.10;99.90;;;;;;5027763;28;20060;-76
2024/02/16 10:48:06;;;;;;;1999.90;999.90;;;15.00;99.90;;;;;;5030608;28;20038;-75
2024/02/16 10:50:33;;;;;;;1999.90;999.90;;;15.00;99.90;;;;;;5055677;28;20053;-76
2024/02/16 10:53:02;;;;;;;1999.90;999.90;;;15.10;99.90;;;;;;5026261;28;20053;-76
2024/02/16 10:55:28;;;;;;;1999.90;999.90;;;14.90;99.90;;;;;;5030853;28;20501;-76
2024/02/16 10:57:56;;;;;;;1999.90;999.90;;;14.90;99.90;;;;;;5029243;28;20033;-76
2024/02/16 11:00:22;;;;;;;1999.90;999.90;;;14.80;99.90;;;;;;5029216;28;20042;-76
2024/02/16 11:02:56;;;;;;;1999.90;999.90;;;14.90;99.90;;;;;;5028900;28;20029;-76
2024/02/16 11:05:46;;;;;;;1999.90;999.90;;;14.70;99.90;;;;;;5021752;28;20057;-76
2024/02/16 11:08:13;;;;;;;1999.90;999.90;;;14.60;99.90;;;;;;5030167;28;20495;-76
2024/02/16 11:10:39;;;;;;;1999.90;999.90;;;14.70;99.90;;;;;;5017667;28;20340;-76
2024/02/16 11:13:05;;;;;;;1999.90;999.90;;;14.90;99.90;;;;;;5030568;28;20033;-77
2024/02/16 11:15:32;;;;;;;1999.90;999.90;;;15.00;99.90;;;;;;5028523;28;20033;-76
2024/02/16 11:18:02;;;;;;;1999.90;999.90;;;14.80;99.90;;;;;;5029124;28;20048;-76
2024/02/16 11:20:28;;;;;;;1999.90;999.90;;;15.00;99.90;;;;;;5030661;28;20026;-76
2024/02/16 11:23:11;;;;;;;1999.90;999.90;;;15.30;99.90;;;;;;5030587;28;20045;-78
2024/02/16 11:25:37;;;;;;;1999.90;999.90;;;15.60;99.90;;;;;;5021524;28;20056;-77
2024/02/16 11:28:04;;;;;;;1999.90;999.90;;;15.80;99.90;;;;;;5028781;28;20524;-76
2024/02/16 11:30:36;;;;;;;1999.90;999.90;;;15.80;99.90;;;;;;5028159;28;20061;-79
2024/02/16 11:33:02;;;;;;;1999.90;999.90;;;15.80;99.90;;;;;;5028770;28;20037;-80
2024/02/16 11:35:29;;;;;;;1999.90;999.90;;;16.10;99.90;;;;;;5029098;28;20044;-80
2024/02/16 11:37:56;;;;;;;1999.90;999.90;;;16.10;99.90;;;;;;5024757;28;20379;-80
2024/02/16 11:40:22;;;;;;;1999.90;999.90;;;16.10;99.90;;;;;;5012420;28;20026;-80
2024/02/16 11:42:48;;;;;;;1999.90;999.90;;;16.20;99.90;;;;;;5031650;28;20048;-80
2024/02/16 11:45:15;;;;;;;1999.90;999.90;;;16.00;99.90;;;;;;5033806;28;20034;-80
2024/02/16 11:47:43;;;;;;;1999.90;999.90;;;15.90;99.90;;;;;;5027976;28;20050;-80
2024/02/16 11:50:12;;;;;;;1999.90;999.90;;;15.80;99.90;;;;;;5029237;28;20038;-79
2024/02/16 11:52:39;;;;;;;1999.90;999.90;;;15.70;99.90;;;;;;5027966;28;20089;-79
2024/02/16 11:55:08;;;;;;;1999.90;999.90;;;15.70;99.90;;;;;;5033934;28;20041;-80
2024/02/16 11:57:35;;;;;;;1999.90;999.90;;;15.60;99.90;;;;;;5032859;28;20029;-80
2024/02/16 12:00:06;;;;;;;1999.90;999.90;;;15.50;99.90;;;;;;5016326;28;20029;-80
2024/02/16 12:02:34;;;;;;;1999.90;999.90;;;15.40;99.90;;;;;;5029823;28;20094;-80
2024/02/16 12:05:01;;;;;;;1999.90;999.90;;;15.50;99.90;;;;;;5033570;28;20525;-77